MST,Max TemperatureF,Mean TemperatureF,Min TemperatureF,Max Dew PointF,MeanDew PointF,Min DewpointF,Max Humidity, Mean Humidity, Min Humidity, Max Sea Level PressureIn, Mean Sea Level PressureIn, Min Sea Level PressureIn, Max VisibilityMiles, Mean VisibilityMiles, Min VisibilityMiles, Max Wind SpeedMPH, Mean Wind SpeedMPH, Max Gust SpeedMPH,PrecipitationIn, CloudCover, Events, WindDirDegrees
2012-12-1,61,51,40,34,31,26,73,50,27,29.78,29.73,29.68,10,10,10,21,10,32,0.00,3,,237
2012-12-2,61,51,40,34,30,26,62,48,33,29.70,29.46,29.25,10,10,9,46,10,59,T,2,Rain,235
2012-12-3,47,43,38,23,17,16,55,42,28,30.16,29.97,29.72,10,10,10,30,17,38,0.00,2,,250
2012-12-4,51,40,28,23,20,16,59,46,33,30.18,30.04,29.90,10,10,10,13,9,13,0.00,2,,239
2012-12-5,63,50,36,36,25,13,64,47,29,30.03,29.83,29.66,10,10,9,28,12,35,T,4,,282
2012-12-6,40,35,30,30,26,19,100,72,44,30.06,29.98,29.89,10,6,0,12,6,16,0.05,7,Fog-Snow,190
2012-12-7,38,32,26,29,24,19,100,74,48,29.98,29.88,29.67,10,9,0,23,13,30,T,4,Fog,239
2012-12-8,36,24,11,23,13,7,84,68,51,30.39,29.97,29.58,10,7,1,37,14,43,0.02,7,Snow,347
2012-12-9,23,14,5,10,8,3,88,73,57,30.50,30.30,30.00,10,10,8,24,14,30,T,4,Snow,221
2012-12-10,34,28,21,23,16,10,72,62,51,30.02,29.99,29.94,10,10,10,29,15,35,0.00,5,,258
2012-12-11,38,30,21,20,18,16,84,64,44,29.97,29.72,29.52,10,10,9,30,20,37,0.00,4,,238
2012-12-12,39,35,30,34,28,20,100,74,48,29.90,29.70,29.57,10,10,6,20,7,23,0.02,7,Rain-Snow,355
2012-12-13,40,31,22,29,25,20,100,80,59,29.96,29.88,29.75,10,8,0,17,7,20,0.00,2,Fog,221
2012-12-14,39,30,21,28,23,17,84,72,59,29.81,29.74,29.66,10,10,10,15,7,15,0.00,4,,250
2012-12-15,38,30,22,30,26,21,92,76,59,29.86,29.79,29.70,10,9,3,10,5,10,T,4,Fog-Snow,231
2012-12-16,39,28,17,21,17,11,100,72,44,29.81,29.73,29.57,10,10,8,26,13,31,0.00,2,Fog,240
2012-12-17,40,31,21,29,19,15,77,61,44,29.59,29.49,29.39,10,10,10,32,12,39,T,5,,251
2012-12-18,35,27,19,15,6,3,51,40,28,29.93,29.76,29.59,10,10,10,36,20,45,0.00,2,,272
2012-12-19,32,23,13,6,3,0,61,44,27,30.17,30.08,29.94,10,10,10,29,12,35,0.00,0,,240
2012-12-20,42,32,21,8,4,1,41,31,21,30.14,30.07,30.00,10,10,10,31,20,39,0.00,1,,242
2012-12-21,45,36,26,10,9,7,43,33,22,30.04,29.99,29.94,10,10,10,23,13,28,0.00,1,,235
2012-12-22,33,23,13,14,12,10,96,71,46,30.14,30.03,29.90,10,4,0,16,8,20,T,6,Fog-Snow,40
2012-12-23,27,20,12,16,12,8,88,76,63,30.13,30.05,29.99,10,8,5,16,5,21,T,3,Fog,40
2012-12-24,12,8,3,8,2,0,92,83,73,30.50,30.21,29.90,10,5,1,18,10,22,0.15,8,Snow,36
2012-12-25,8,3,-2,1,-1,-5,95,86,76,30.51,30.37,30.19,10,8,1,7,3,9,0.03,5,Snow,40
2012-12-26,13,5,-3,7,3,-5,95,86,76,30.16,30.03,29.95,10,10,9,6,2,7,T,7,Snow,350
2012-12-27,21,13,4,14,9,2,91,80,68,30.08,30.02,29.85,10,10,9,21,6,25,0.00,5,,228
2012-12-28,28,23,18,18,14,10,77,70,63,30.17,30.08,29.91,10,10,10,24,17,30,0.00,4,,235
2012-12-29,27,21,15,13,10,8,74,62,50,30.17,30.10,29.93,10,10,10,23,14,30,0.00,2,,226
2012-12-30,30,22,13,21,11,6,75,66,57,30.19,30.14,30.05,10,10,10,18,11,22,0.00,3,,235
2012-12-31,25,17,9,12,8,3,80,68,55,30.21,30.17,30.02,10,10,9,21,16,26,T,3,Snow,232